createdAt,value
2023-04-06T00:00:38.503Z,2.22
2023-04-06T00:03:19.449Z,2.22
2023-04-06T00:05:49.118Z,2.20
2023-04-06T00:08:17.984Z,2.20
2023-04-06T00:10:46.931Z,2.19
2023-04-06T00:13:15.877Z,2.17
2023-04-06T00:15:44.542Z,2.13
2023-04-06T00:18:13.511Z,2.13
2023-04-06T00:20:42.451Z,2.11
2023-04-06T00:23:11.570Z,2.09
2023-04-06T00:25:40.312Z,2.13
2023-04-06T00:28:09.617Z,2.16
2023-04-06T00:30:38.281Z,2.19
2023-04-06T00:33:07.318Z,2.21
2023-04-06T00:35:36.372Z,2.23
2023-04-06T00:38:05.275Z,2.23
2023-04-06T00:40:34.581Z,2.20
2023-04-06T00:43:03.454Z,2.15
2023-04-06T00:45:32.110Z,2.08
2023-04-06T00:48:01.236Z,1.99
2023-04-06T00:50:31.131Z,1.93
2023-04-06T00:53:02.938Z,1.86
2023-04-06T00:55:31.592Z,1.80
2023-04-06T00:58:02.398Z,1.75
2023-04-06T01:00:34.371Z,1.76
2023-04-06T01:03:04.796Z,1.78
2023-04-06T01:05:42.157Z,1.81
2023-04-06T01:08:17.777Z,1.82
2023-04-06T01:10:47.617Z,1.83
2023-04-06T01:13:24.861Z,1.88
2023-04-06T01:16:00.813Z,1.90
2023-04-06T01:18:55.726Z,1.88
2023-04-06T01:21:29.768Z,1.86
2023-04-06T01:24:18.669Z,1.83
2023-04-06T01:27:11.181Z,1.78
2023-04-06T01:30:00.725Z,1.74
2023-04-06T01:32:50.240Z,1.70
2023-04-06T01:35:23.616Z,1.67
2023-04-06T01:38:11.770Z,1.64
2023-04-06T01:40:40.481Z,1.63
2023-04-06T01:43:09.262Z,1.62
2023-04-06T01:45:46.447Z,1.62
2023-04-06T01:48:18.780Z,1.62
2023-04-06T01:50:47.800Z,1.63
2023-04-06T01:53:20.195Z,1.62
2023-04-06T01:55:49.465Z,1.60
2023-04-06T01:58:23.282Z,1.57
2023-04-06T02:00:52.762Z,1.53
2023-04-06T02:03:22.002Z,1.47
2023-04-06T02:05:53.189Z,1.40
2023-04-06T02:08:28.877Z,1.33
2023-04-06T02:10:57.853Z,1.29
2023-04-06T02:13:32.587Z,1.27
2023-04-06T02:16:01.414Z,1.26
2023-04-06T02:18:34.205Z,1.27
2023-04-06T02:21:02.868Z,1.27
2023-04-06T02:23:31.301Z,1.28
2023-04-06T02:26:00.424Z,1.32
2023-04-06T02:28:29.260Z,1.35
2023-04-06T02:30:57.715Z,1.34
2023-04-06T02:33:29.193Z,1.33
2023-04-06T02:35:58.118Z,1.30
2023-04-06T02:38:26.656Z,1.25
2023-04-06T02:40:55.631Z,1.21
2023-04-06T02:43:26.371Z,1.18
2023-04-06T02:46:02.173Z,1.16
2023-04-06T02:48:31.979Z,1.15
2023-04-06T02:51:00.456Z,1.13
2023-04-06T02:53:29.268Z,1.12
2023-04-06T02:55:58.031Z,1.12
2023-04-06T02:58:29.357Z,1.13
2023-04-06T03:00:59.401Z,1.15
2023-04-06T03:03:27.952Z,1.14
2023-04-06T03:05:59.903Z,1.14
2023-04-06T03:08:30.894Z,1.10
2023-04-06T03:11:00.125Z,1.06
2023-04-06T03:13:39.887Z,1.02
2023-04-06T03:16:09.349Z,0.98
2023-04-06T03:18:38.093Z,0.96
2023-04-06T03:21:08.109Z,0.97
2023-04-06T03:23:46.093Z,0.98
2023-04-06T03:26:14.691Z,0.99
2023-04-06T03:28:43.195Z,1.01
2023-04-06T03:31:12.319Z,1.03
2023-04-06T03:33:44.150Z,1.07
2023-04-06T03:36:17.644Z,1.14
2023-04-06T03:38:46.376Z,1.17
2023-04-06T03:41:16.110Z,1.19
2023-04-06T03:43:49.885Z,1.19
2023-04-06T03:46:19.876Z,1.09
2023-04-06T03:48:50.846Z,0.85
2023-04-06T03:51:19.566Z,0.69
2023-04-06T03:53:50.600Z,0.52
2023-04-06T03:56:19.725Z,0.40
2023-04-06T03:58:51.969Z,0.34
2023-04-06T04:01:23.741Z,0.36
2023-04-06T04:03:52.943Z,0.40
2023-04-06T04:06:21.799Z,0.42
2023-04-06T04:08:51.548Z,0.46
2023-04-06T04:11:20.008Z,0.51
2023-04-06T04:13:50.822Z,0.54
2023-04-06T04:16:20.434Z,0.56
2023-04-06T04:18:49.998Z,0.57
2023-04-06T04:21:18.520Z,0.59
2023-04-06T04:23:48.173Z,0.60
2023-04-06T04:26:16.712Z,0.60
2023-04-06T04:28:46.885Z,0.61
2023-04-06T04:31:19.719Z,0.61
2023-04-06T04:33:49.084Z,0.58
2023-04-06T04:36:19.992Z,0.58
2023-04-06T04:38:49.257Z,0.62
2023-04-06T04:41:18.015Z,0.65
2023-04-06T04:43:46.993Z,0.70
2023-04-06T04:46:16.342Z,0.80
2023-04-06T04:48:46.283Z,0.89
2023-04-06T04:51:15.885Z,0.98
2023-04-06T04:54:03.445Z,1.04
2023-04-06T04:56:33.627Z,1.16
2023-04-06T04:59:31.496Z,1.29
2023-04-06T05:02:05.469Z,1.38
2023-04-06T05:04:48.380Z,1.45
2023-04-06T05:07:22.157Z,1.50
2023-04-06T05:09:52.277Z,1.50
2023-04-06T05:12:22.259Z,1.51
2023-04-06T05:15:12.220Z,1.56
2023-04-06T05:17:40.977Z,1.56
2023-04-06T05:20:10.760Z,1.60
2023-04-06T05:22:46.875Z,1.66
2023-04-06T05:25:16.145Z,1.72
2023-04-06T05:27:44.977Z,1.79
2023-04-06T05:30:27.982Z,1.86
2023-04-06T05:32:56.702Z,1.93
2023-04-06T05:35:27.088Z,2.09
2023-04-06T05:37:59.204Z,2.50
2023-04-06T05:40:28.386Z,3.20
2023-04-06T05:42:56.840Z,4.24
2023-04-06T05:45:25.982Z,5.51
2023-04-06T05:47:57.306Z,6.89
2023-04-06T05:50:30.483Z,8.16
2023-04-06T05:52:59.610Z,9.35
2023-04-06T05:55:32.332Z,10.32
2023-04-06T05:58:14.691Z,11.13
2023-04-06T06:00:44.123Z,11.98
2023-04-06T06:03:14.490Z,12.71
2023-04-06T06:05:44.277Z,13.35
2023-04-06T06:08:17.625Z,13.99
2023-04-06T06:10:46.732Z,14.52
2023-04-06T06:13:15.794Z,15.03
2023-04-06T06:15:45.302Z,15.38
2023-04-06T06:18:15.039Z,15.70
2023-04-06T06:20:43.698Z,15.98
2023-04-06T06:23:13.096Z,16.22
2023-04-06T06:25:42.422Z,16.61
2023-04-06T06:28:11.426Z,16.92
2023-04-06T06:30:40.605Z,17.14
2023-04-06T06:33:09.534Z,17.51
2023-04-06T06:35:38.207Z,17.77
2023-04-06T06:38:08.094Z,17.72
2023-04-06T06:40:36.623Z,17.62
2023-04-06T06:43:05.962Z,17.57
2023-04-06T06:45:52.956Z,17.39
2023-04-06T06:48:21.474Z,17.32
2023-04-06T06:50:50.003Z,17.24
2023-04-06T06:53:19.118Z,17.25
2023-04-06T06:55:47.635Z,17.47
2023-04-06T06:58:16.782Z,17.57
2023-04-06T07:00:46.379Z,17.53
2023-04-06T07:03:15.183Z,17.70
2023-04-06T07:05:54.575Z,17.80
2023-04-06T07:08:25.899Z,17.82
2023-04-06T07:10:57.747Z,17.81
2023-04-06T07:13:28.596Z,17.81
2023-04-06T07:15:59.253Z,17.79
2023-04-06T07:18:28.301Z,17.60
2023-04-06T07:20:56.989Z,17.55
2023-04-06T07:23:26.029Z,17.64
2023-04-06T07:25:56.046Z,17.59
2023-04-06T07:28:24.635Z,17.50
2023-04-06T07:30:53.531Z,17.28
2023-04-06T07:33:23.839Z,17.26
2023-04-06T07:35:53.738Z,17.29
2023-04-06T07:38:22.664Z,17.15
2023-04-06T07:40:53.279Z,16.98
2023-04-06T07:43:21.820Z,16.81
2023-04-06T07:45:50.843Z,16.64
2023-04-06T07:48:19.650Z,16.59
2023-04-06T07:50:48.140Z,16.74
2023-04-06T07:53:17.571Z,16.90
2023-04-06T07:55:46.543Z,17.00
2023-04-06T07:58:42.283Z,17.04
2023-04-06T08:01:22.773Z,16.88
2023-04-06T08:03:52.128Z,16.73
2023-04-06T08:06:21.124Z,16.73
2023-04-06T08:08:49.817Z,16.68
2023-04-06T08:11:18.598Z,16.61
2023-04-06T08:13:47.046Z,16.45
2023-04-06T08:16:16.480Z,16.40
2023-04-06T08:18:45.280Z,16.51
2023-04-06T08:21:13.809Z,16.43
2023-04-06T08:23:43.068Z,16.16
2023-04-06T08:26:11.639Z,15.76
2023-04-06T08:28:40.331Z,15.27
2023-04-06T08:31:09.152Z,14.87
2023-04-06T08:33:38.094Z,14.44
2023-04-06T08:36:14.589Z,13.95
2023-04-06T08:38:44.245Z,13.54
2023-04-06T08:41:14.599Z,13.29
2023-04-06T08:43:49.231Z,13.02
2023-04-06T08:46:19.784Z,12.63
2023-04-06T08:48:51.398Z,12.36
2023-04-06T08:51:20.607Z,12.08
2023-04-06T08:54:01.315Z,11.82
2023-04-06T08:56:42.137Z,11.69
2023-04-06T08:59:11.218Z,11.53
2023-04-06T09:01:45.107Z,11.35
2023-04-06T09:04:14.529Z,11.36
2023-04-06T09:06:44.233Z,11.36
2023-04-06T09:09:13.174Z,11.50
2023-04-06T09:11:50.024Z,11.62
2023-04-06T09:14:34.212Z,11.96
2023-04-06T09:17:03.000Z,11.81
2023-04-06T09:19:32.090Z,11.75
2023-04-06T09:22:10.334Z,11.84
2023-04-06T09:24:42.911Z,11.60
2023-04-06T09:27:11.779Z,11.94
2023-04-06T09:29:41.569Z,11.99
2023-04-06T09:32:18.649Z,11.55
2023-04-06T09:34:50.831Z,11.48
2023-04-06T09:37:21.077Z,11.73
2023-04-06T09:39:52.946Z,12.24
2023-04-06T09:42:27.775Z,12.61
2023-04-06T09:44:56.406Z,12.55
2023-04-06T09:47:29.590Z,12.62
2023-04-06T09:50:00.678Z,12.72
2023-04-06T09:52:34.765Z,12.60
2023-04-06T09:55:09.292Z,12.40
2023-04-06T09:57:51.238Z,12.41
2023-04-06T10:00:25.083Z,12.48
2023-04-06T10:03:09.926Z,12.40
2023-04-06T10:06:06.104Z,12.21
2023-04-06T10:08:41.781Z,12.01
2023-04-06T10:11:12.285Z,11.67
2023-04-06T10:13:41.030Z,11.12
2023-04-06T10:16:09.721Z,10.84
2023-04-06T10:18:42.023Z,10.66
2023-04-06T10:21:14.192Z,10.72
2023-04-06T10:23:50.898Z,10.74
2023-04-06T10:26:22.836Z,10.80
2023-04-06T10:28:52.267Z,11.00
2023-04-06T10:31:28.937Z,11.14
2023-04-06T10:33:59.621Z,10.94
2023-04-06T10:36:32.987Z,10.66
2023-04-06T10:39:07.311Z,10.60
2023-04-06T10:41:47.415Z,10.61
2023-04-06T10:44:23.090Z,10.42
2023-04-06T10:46:58.514Z,10.12
2023-04-06T10:49:28.289Z,10.04
2023-04-06T10:51:57.925Z,10.04
2023-04-06T10:54:28.698Z,9.96
2023-04-06T10:56:57.856Z,9.93
2023-04-06T10:59:27.265Z,9.92
2023-04-06T11:01:57.380Z,9.83
2023-04-06T11:04:26.552Z,9.93
2023-04-06T11:06:56.442Z,10.13
2023-04-06T11:09:29.815Z,10.29
2023-04-06T11:12:01.883Z,10.40
2023-04-06T11:14:32.079Z,10.37
2023-04-06T11:17:00.834Z,10.38
2023-04-06T11:19:29.636Z,10.27
2023-04-06T11:22:08.904Z,10.09
2023-04-06T11:24:37.676Z,9.85
2023-04-06T11:27:07.590Z,9.69
2023-04-06T11:29:38.688Z,9.81
2023-04-06T11:32:09.025Z,9.95
2023-04-06T11:34:40.222Z,10.01
2023-04-06T11:37:10.832Z,9.92
2023-04-06T11:39:53.822Z,9.76
2023-04-06T11:42:24.293Z,9.77
2023-04-06T11:44:56.149Z,9.80
2023-04-06T11:47:36.379Z,9.71
2023-04-06T11:50:10.785Z,9.56
2023-04-06T11:52:43.333Z,9.36
2023-04-06T11:55:15.525Z,9.14
2023-04-06T11:57:45.121Z,8.97
2023-04-06T12:00:16.777Z,9.09
2023-04-06T12:02:49.964Z,9.35
2023-04-06T12:05:18.862Z,9.64
2023-04-06T12:07:47.667Z,9.88
2023-04-06T12:10:16.789Z,10.16
2023-04-06T12:12:45.732Z,10.24
2023-04-06T12:15:14.478Z,10.14
2023-04-06T12:17:43.468Z,10.01
2023-04-06T12:20:27.066Z,9.86
2023-04-06T12:22:58.469Z,9.78
2023-04-06T12:25:27.118Z,9.61
2023-04-06T12:27:55.711Z,9.58
2023-04-06T12:30:25.838Z,9.64
2023-04-06T12:32:54.387Z,9.79
2023-04-06T12:35:23.134Z,9.97
2023-04-06T12:37:52.294Z,10.23
2023-04-06T12:40:22.328Z,10.38
2023-04-06T12:42:51.370Z,10.48
2023-04-06T12:45:23.038Z,10.61
2023-04-06T12:47:52.139Z,10.57
2023-04-06T12:50:21.266Z,10.41
2023-04-06T12:52:50.273Z,10.24
2023-04-06T12:55:18.834Z,10.02
2023-04-06T12:57:47.970Z,9.81
2023-04-06T13:00:17.317Z,9.67
2023-04-06T13:02:48.624Z,9.65
2023-04-06T13:05:20.250Z,9.58
2023-04-06T13:07:48.924Z,9.49
2023-04-06T13:10:17.558Z,9.42
2023-04-06T13:12:46.594Z,9.35
2023-04-06T13:15:15.683Z,9.26
2023-04-06T13:17:44.269Z,9.16
2023-04-06T13:20:13.897Z,9.08
2023-04-06T13:22:42.348Z,9.16
2023-04-06T13:25:10.997Z,9.37
2023-04-06T13:27:40.055Z,9.61
2023-04-06T13:30:09.608Z,9.79
2023-04-06T13:32:38.520Z,9.87
2023-04-06T13:35:08.777Z,9.85
2023-04-06T13:37:38.116Z,9.81
2023-04-06T13:40:08.326Z,9.73
2023-04-06T13:42:37.195Z,9.66
2023-04-06T13:45:06.287Z,9.70
2023-04-06T13:47:35.021Z,9.75
2023-04-06T13:50:05.041Z,9.84
2023-04-06T13:52:33.579Z,9.88
2023-04-06T13:55:03.636Z,9.90
2023-04-06T13:57:32.317Z,9.93
2023-04-06T14:00:00.951Z,9.97
2023-04-06T14:02:34.366Z,9.81
2023-04-06T14:05:04.603Z,9.57
2023-04-06T14:07:33.306Z,9.47
2023-04-06T14:10:03.464Z,9.44
2023-04-06T14:12:33.008Z,9.52
2023-04-06T14:15:01.498Z,9.58
2023-04-06T14:17:42.088Z,9.64
2023-04-06T14:20:22.034Z,9.70
2023-04-06T14:22:52.853Z,9.80
2023-04-06T14:25:21.795Z,9.92
2023-04-06T14:27:50.805Z,10.04
2023-04-06T14:30:20.659Z,10.02
2023-04-06T14:32:49.747Z,9.98
2023-04-06T14:35:22.414Z,10.00
2023-04-06T14:37:51.316Z,10.10
2023-04-06T14:40:20.436Z,10.16
2023-04-06T14:42:49.268Z,10.14
2023-04-06T14:45:19.240Z,10.15
2023-04-06T14:47:47.913Z,10.15
2023-04-06T14:50:16.821Z,10.08
2023-04-06T14:52:47.398Z,9.93
2023-04-06T14:55:16.932Z,9.84
2023-04-06T14:57:45.613Z,9.66
2023-04-06T15:00:14.889Z,9.54
2023-04-06T15:02:44.628Z,9.46
2023-04-06T15:05:13.821Z,9.45
2023-04-06T15:07:42.456Z,9.41
2023-04-06T15:10:12.355Z,9.42
2023-04-06T15:12:41.252Z,9.45
2023-04-06T15:15:10.263Z,9.51
2023-04-06T15:17:39.055Z,9.53
2023-04-06T15:20:08.370Z,9.54
2023-04-06T15:22:37.193Z,9.49
2023-04-06T15:25:06.256Z,9.40
2023-04-06T15:27:35.283Z,9.35
2023-04-06T15:30:04.667Z,9.35
2023-04-06T15:32:33.340Z,9.27
2023-04-06T15:35:09.862Z,9.19
2023-04-06T15:37:39.921Z,9.10
2023-04-06T15:40:09.437Z,8.95
2023-04-06T15:42:38.050Z,8.82
2023-04-06T15:45:07.601Z,8.76
2023-04-06T15:47:36.276Z,8.67
2023-04-06T15:50:07.083Z,8.64
2023-04-06T15:52:36.174Z,8.58
2023-04-06T15:55:06.997Z,8.57
2023-04-06T16:02:04.889Z,8.60
2023-04-06T16:04:34.186Z,8.58
2023-04-06T16:07:02.807Z,8.61
2023-04-06T16:09:32.348Z,8.58
2023-04-06T16:12:02.897Z,8.59
2023-04-06T16:14:31.719Z,8.64
2023-04-06T16:17:00.333Z,8.59
2023-04-06T16:19:29.151Z,8.54
2023-04-06T16:21:58.203Z,8.47
2023-04-06T16:24:27.021Z,8.39
2023-04-06T16:26:57.711Z,8.30
2023-04-06T16:29:32.611Z,8.24
2023-04-06T16:32:02.364Z,8.21
2023-04-06T16:34:32.572Z,8.19
2023-04-06T16:37:02.254Z,8.17
2023-04-06T16:39:30.964Z,8.15
2023-04-06T16:42:01.591Z,8.12
2023-04-06T16:44:32.290Z,8.09
2023-04-06T16:47:01.420Z,8.03
2023-04-06T16:49:29.976Z,8.00
2023-04-06T16:52:02.260Z,7.93
2023-04-06T16:54:30.956Z,7.85
2023-04-06T16:56:59.679Z,7.80
2023-04-06T16:59:30.063Z,7.75
2023-04-06T17:01:58.850Z,7.70
2023-04-06T17:04:53.293Z,7.67
2023-04-06T17:07:41.463Z,7.63
2023-04-06T17:10:34.173Z,7.57
2023-04-06T17:13:21.600Z,7.54
2023-04-06T17:16:20.520Z,7.50
2023-04-06T17:19:05.253Z,7.46
2023-04-06T17:22:03.780Z,7.42
2023-04-06T17:24:49.426Z,7.39
2023-04-06T17:27:49.946Z,7.33
2023-04-06T17:30:48.820Z,7.28
2023-04-06T17:33:45.077Z,7.22
2023-04-06T17:36:32.892Z,7.17
2023-04-06T17:39:27.974Z,7.15
2023-04-06T17:42:13.869Z,7.11
2023-04-06T17:44:52.546Z,7.07
2023-04-06T17:47:22.574Z,7.03
2023-04-06T17:49:52.087Z,6.99
2023-04-06T17:52:20.585Z,6.95
2023-04-06T17:54:51.000Z,6.94
2023-04-06T17:57:21.649Z,6.93
2023-04-06T17:59:50.631Z,6.93
2023-04-06T18:02:20.284Z,6.91
2023-04-06T18:04:53.842Z,6.90
2023-04-06T18:07:22.634Z,6.89
2023-04-06T18:09:51.832Z,6.87
2023-04-06T18:12:21.449Z,6.84
2023-04-06T18:14:50.538Z,6.80
2023-04-06T18:17:19.137Z,6.79
2023-04-06T18:19:48.160Z,6.78
2023-04-06T18:22:17.689Z,6.75
2023-04-06T18:24:46.775Z,6.71
2023-04-06T18:27:16.735Z,6.67
2023-04-06T18:29:45.705Z,6.62
2023-04-06T18:32:18.780Z,6.59
2023-04-06T18:34:47.749Z,6.57
2023-04-06T18:37:16.576Z,6.55
2023-04-06T18:39:45.585Z,6.52
2023-04-06T18:42:14.207Z,6.49
2023-04-06T18:44:42.775Z,6.47
2023-04-06T18:47:11.675Z,6.46
2023-04-06T18:49:40.942Z,6.46
2023-04-06T18:52:10.180Z,6.47
2023-04-06T18:54:39.047Z,6.46
2023-04-06T18:57:07.846Z,6.45
2023-04-06T18:59:37.171Z,6.42
2023-04-06T19:02:06.183Z,6.38
2023-04-06T19:04:35.664Z,6.34
2023-04-06T19:07:05.573Z,6.32
2023-04-06T19:09:34.751Z,6.28
2023-04-06T19:12:03.610Z,6.24
2023-04-06T19:14:33.319Z,6.22
2023-04-06T19:17:02.254Z,6.23
2023-04-06T19:19:30.991Z,6.24
2023-04-06T19:22:01.712Z,6.25
2023-04-06T19:24:30.460Z,6.25
2023-04-06T19:26:59.601Z,6.26
2023-04-06T19:29:28.786Z,6.29
2023-04-06T19:31:57.893Z,6.31
2023-04-06T19:34:27.352Z,6.33
2023-04-06T19:36:56.977Z,6.32
2023-04-06T19:39:27.181Z,6.33
2023-04-06T19:41:56.553Z,6.35
2023-04-06T19:44:26.193Z,6.37
2023-04-06T19:46:55.045Z,6.38
2023-04-06T19:49:23.611Z,6.38
2023-04-06T19:51:52.767Z,6.38
2023-04-06T19:54:22.851Z,6.39
2023-04-06T19:56:51.866Z,6.39
2023-04-06T19:59:21.800Z,6.40
2023-04-06T20:01:50.762Z,6.41
2023-04-06T20:04:19.501Z,6.41
2023-04-06T20:06:48.411Z,6.42
2023-04-06T20:09:18.079Z,6.43
2023-04-06T20:11:46.564Z,6.43
2023-04-06T20:14:18.159Z,6.42
2023-04-06T20:16:47.179Z,6.42
2023-04-06T20:19:15.615Z,6.43
2023-04-06T20:21:44.991Z,6.42
2023-04-06T20:24:13.792Z,6.40
2023-04-06T20:26:42.393Z,6.40
2023-04-06T20:29:11.602Z,6.39
2023-04-06T20:31:40.262Z,6.39
2023-04-06T20:34:08.756Z,6.41
2023-04-06T20:36:38.465Z,6.40
2023-04-06T20:39:07.766Z,6.36
2023-04-06T20:41:36.323Z,6.31
2023-04-06T20:44:05.179Z,6.28
2023-04-06T20:46:34.298Z,6.26
2023-04-06T20:49:04.123Z,6.25
2023-04-06T20:51:32.820Z,6.23
2023-04-06T20:54:02.051Z,6.22
2023-04-06T20:56:30.932Z,6.23
2023-04-06T20:59:00.742Z,6.25
2023-04-06T21:01:29.917Z,6.24
2023-04-06T21:03:58.944Z,6.25
2023-04-06T21:06:29.876Z,6.27
2023-04-06T21:09:00.125Z,6.30
2023-04-06T21:11:28.756Z,6.29
2023-04-06T21:13:57.874Z,6.29
2023-04-06T21:16:26.403Z,6.28
2023-04-06T21:18:54.882Z,6.28
2023-04-06T21:21:23.938Z,6.31
2023-04-06T21:23:53.422Z,6.31
2023-04-06T21:26:21.797Z,6.30
2023-04-06T21:28:50.972Z,6.28
2023-04-06T21:31:21.839Z,6.27
2023-04-06T21:33:51.076Z,6.25
2023-04-06T21:36:20.401Z,6.24
2023-04-06T21:38:49.104Z,6.24
2023-04-06T21:41:17.749Z,6.23
2023-04-06T21:43:46.889Z,6.24
2023-04-06T21:46:15.934Z,6.24
2023-04-06T21:48:44.386Z,6.25
2023-04-06T21:51:20.762Z,6.24
2023-04-06T21:53:49.344Z,6.26
2023-04-06T21:56:22.818Z,6.25
2023-04-06T21:58:53.016Z,6.24
2023-04-06T22:01:22.129Z,6.25
2023-04-06T22:03:51.235Z,6.24
2023-04-06T22:06:19.965Z,6.26
2023-04-06T22:08:49.503Z,6.26
2023-04-06T22:11:18.447Z,6.26
2023-04-06T22:13:47.432Z,6.24
2023-04-06T22:16:18.842Z,6.24
2023-04-06T22:18:47.648Z,6.23
2023-04-06T22:21:16.123Z,6.23
2023-04-06T22:23:45.253Z,6.21
2023-04-06T22:26:14.452Z,6.19
2023-04-06T22:28:42.889Z,6.15
2023-04-06T22:31:11.714Z,6.12
2023-04-06T22:33:40.822Z,6.12
2023-04-06T22:36:09.960Z,6.10
2023-04-06T22:38:38.738Z,6.09
2023-04-06T22:41:08.639Z,6.06
2023-04-06T22:43:37.395Z,6.01
2023-04-06T22:46:06.269Z,5.99
2023-04-06T22:48:35.428Z,5.97
2023-04-06T22:51:03.958Z,5.97
2023-04-06T22:53:32.789Z,5.96
2023-04-06T22:56:02.092Z,5.95
2023-04-06T22:58:30.566Z,5.95
2023-04-06T23:00:59.238Z,5.95
2023-04-06T23:03:28.587Z,5.97
2023-04-06T23:05:57.622Z,5.96
2023-04-06T23:08:26.793Z,5.97
2023-04-06T23:10:55.531Z,5.95
2023-04-06T23:13:24.270Z,5.93
2023-04-06T23:15:52.779Z,5.92
2023-04-06T23:18:21.597Z,5.92
2023-04-06T23:20:50.520Z,5.92
2023-04-06T23:23:19.314Z,5.91
2023-04-06T23:25:47.876Z,5.90
2023-04-06T23:28:16.634Z,5.88
2023-04-06T23:30:45.310Z,5.85
2023-04-06T23:33:14.080Z,5.84
2023-04-06T23:35:42.958Z,5.85
2023-04-06T23:38:11.737Z,5.83
2023-04-06T23:40:40.316Z,5.81
2023-04-06T23:43:08.868Z,5.81
2023-04-06T23:45:42.389Z,5.81
2023-04-06T23:48:11.223Z,5.80
2023-04-06T23:50:39.793Z,5.81
2023-04-06T23:53:08.405Z,5.82
2023-04-06T23:55:37.169Z,5.82
2023-04-06T23:58:05.761Z,5.80
